Hanalei, Hawaii
Current Conditions -  °F | °C
As of 1:53 AM on Sunday 23 Nov 2014 (Local Time) from PHLI Reporting Station
Overcast Overcast  
Wind Chill: 24°   Ceiling: 3600
Heat Index: 24°   Visibility: 10mi
Dew Point: 20°   Wind: 12mph
Humidity: 76%   Direction: 90°E
Pressure: 30.03"   Gusts: NA
Location:  22.2°N, 159.49°W
Report Text: PHLI 231153Z 09010KT 10SM FEW022 BKN036 OVC050 24/20 A3003 RMK AO2 RAB26E35 SLP165 P0000 60000 T02440200 10250 20244 56010 $
Loading
Personal Weather Stations






























Interactive Weather Map New forecast layout! Learn more

10-Day Weather Forecast

Advertisements
Track Severe Weather on mobile